Time;durP1;ratioP1;P1;durP2;ratioP2;P2;SDS_P1;SDS_P2;PMS_P1;PMS_P2;Temp;Humidity;BMP_temperature;BMP_pressure;BME280_temperature;BME280_humidity;BME280_pressure;Samples;Min_cycle;Max_cycle;Signal;HPM_P1;HPM_P2
2021/03/19 00:02:06;;;;;;;3.10;2.23;;;2.60;99.90;;;;;;4990909;28;20756;-68
2021/03/19 00:04:31;;;;;;;2.90;2.30;;;2.80;99.90;;;;;;4990272;28;20752;-69
2021/03/19 00:06:57;;;;;;;2.80;2.30;;;3.20;99.90;;;;;;4990527;28;20437;-68
2021/03/19 00:09:23;;;;;;;2.60;2.20;;;3.40;99.90;;;;;;4990830;28;20391;-68
2021/03/19 00:11:49;;;;;;;2.50;2.30;;;2.90;99.90;;;;;;4990109;28;20382;-68
2021/03/19 00:14:14;;;;;;;2.10;1.90;;;2.40;99.90;;;;;;4990899;28;20393;-68
2021/03/19 00:16:40;;;;;;;2.35;2.13;;;2.70;99.90;;;;;;4989708;28;20441;-69
2021/03/19 00:19:07;;;;;;;2.55;2.08;;;2.80;99.90;;;;;;4990956;28;20386;-69
2021/03/19 00:21:33;;;;;;;2.85;1.75;;;2.60;99.90;;;;;;4989950;28;20386;-69
2021/03/19 00:23:59;;;;;;;2.50;2.10;;;2.40;99.90;;;;;;4989481;28;20409;-68
2021/03/19 00:26:26;;;;;;;2.55;2.35;;;3.40;99.90;;;;;;4989981;28;20414;-72
2021/03/19 00:28:52;;;;;;;2.95;2.45;;;3.30;99.90;;;;;;4991411;28;20409;-69
2021/03/19 00:31:18;;;;;;;2.40;2.15;;;2.70;99.90;;;;;;4997001;28;20761;-68
2021/03/19 00:33:43;;;;;;;4.28;2.65;;;3.40;99.90;;;;;;5012943;28;20388;-68
2021/03/19 00:36:09;;;;;;;2.80;2.50;;;2.20;99.90;;;;;;5013768;28;20385;-68
2021/03/19 00:38:35;;;;;;;3.30;2.53;;;2.80;99.90;;;;;;5013419;28;20401;-69
2021/03/19 00:41:01;;;;;;;2.97;2.43;;;3.10;99.90;;;;;;5013932;28;20400;-68
2021/03/19 00:43:27;;;;;;;2.60;2.30;;;2.60;99.90;;;;;;5013935;28;20400;-72
2021/03/19 00:45:53;;;;;;;3.10;2.50;;;3.70;99.90;;;;;;5013472;28;20385;-68
2021/03/19 00:48:18;;;;;;;3.30;2.47;;;3.80;99.90;;;;;;5013897;28;20475;-68
2021/03/19 00:50:44;;;;;;;2.50;2.30;;;2.40;99.90;;;;;;5012969;28;20439;-69
2021/03/19 00:53:10;;;;;;;4.85;2.60;;;2.40;99.90;;;;;;5013716;28;20381;-69
2021/03/19 00:55:37;;;;;;;2.80;2.50;;;2.80;99.90;;;;;;5012930;28;20381;-69
2021/03/19 00:58:03;;;;;;;3.08;2.20;;;3.00;99.90;;;;;;5013629;28;20393;-69
2021/03/19 01:00:32;;;;;;;2.65;2.40;;;3.70;99.90;;;;;;5013159;28;20726;-73
2021/03/19 01:02:58;;;;;;;2.80;2.35;;;3.30;99.90;;;;;;5013273;28;20474;-69
2021/03/19 01:05:26;;;;;;;3.73;2.10;;;2.80;99.90;;;;;;5013352;28;20881;-69
2021/03/19 01:07:52;;;;;;;2.55;2.22;;;2.80;99.90;;;;;;5012778;28;20435;-69
2021/03/19 01:10:29;;;;;;;2.53;2.33;;;2.40;99.90;;;;;;5013336;28;20853;-69
2021/03/19 01:12:55;;;;;;;2.92;2.63;;;4.10;99.90;;;;;;5013394;28;20454;-69
2021/03/19 01:15:21;;;;;;;4.88;2.50;;;4.20;99.90;;;;;;5013201;28;20435;-69
2021/03/19 01:17:47;;;;;;;2.67;2.35;;;3.10;99.90;;;;;;5012358;28;20932;-69
2021/03/19 01:20:15;;;;;;;3.00;2.63;;;2.50;99.90;;;;;;5013019;28;20412;-69
2021/03/19 01:22:42;;;;;;;3.20;2.50;;;2.80;99.90;;;;;;5012434;28;20385;-69
2021/03/19 01:25:10;;;;;;;3.25;2.25;;;2.50;99.90;;;;;;5013177;28;20944;-69
2021/03/19 01:27:36;;;;;;;2.58;2.08;;;2.50;99.90;;;;;;5012124;28;20405;-69
2021/03/19 01:30:11;;;;;;;3.20;1.90;;;4.40;99.90;;;;;;5013148;28;20414;-69
2021/03/19 01:32:38;;;;;;;5.55;2.10;;;2.50;99.90;;;;;;4998317;28;20407;-69
2021/03/19 01:35:05;;;;;;;2.20;1.90;;;2.50;99.90;;;;;;4993520;28;20803;-69
2021/03/19 01:37:30;;;;;;;2.97;2.03;;;2.70;99.90;;;;;;4992621;28;20414;-73
2021/03/19 01:39:56;;;;;;;2.63;1.95;;;5.60;99.90;;;;;;4992066;28;20462;-69
2021/03/19 01:42:22;;;;;;;2.10;1.90;;;2.60;99.90;;;;;;4992309;28;20399;-69
2021/03/19 01:45:09;;;;;;;2.22;2.03;;;2.50;99.90;;;;;;4992189;28;20559;-69
2021/03/19 01:48:12;;;;;;;3.05;1.90;;;2.60;99.90;;;;;;4992160;28;20421;-69
2021/03/19 01:51:15;;;;;;;2.10;1.90;;;2.60;99.90;;;;;;4992341;28;20394;-69
2021/03/19 01:54:18;;;;;;;2.10;1.90;;;2.50;99.90;;;;;;4992231;28;20387;-69
2021/03/19 01:57:21;;;;;;;2.20;1.80;;;2.60;99.90;;;;;;4992184;28;20391;-69
2021/03/19 02:00:24;;;;;;;2.33;2.13;;;2.30;99.90;;;;;;4991950;28;20398;-69
2021/03/19 02:03:27;;;;;;;2.88;2.17;;;2.50;99.90;;;;;;4991846;28;20881;-69
2021/03/19 02:06:30;;;;;;;2.37;2.17;;;2.50;99.90;;;;;;4991860;28;21051;-68
2021/03/19 02:09:33;;;;;;;4.20;2.30;;;3.00;99.90;;;;;;4991845;28;20889;-70
2021/03/19 02:12:36;;;;;;;3.47;2.20;;;2.30;99.90;;;;;;4992227;28;20390;-68
2021/03/19 02:15:39;;;;;;;2.90;2.40;;;2.60;99.90;;;;;;4992458;28;20481;-68
2021/03/19 02:18:42;;;;;;;2.95;2.50;;;2.30;99.90;;;;;;4992576;28;20461;-68
2021/03/19 02:21:45;;;;;;;2.80;2.28;;;2.10;99.90;;;;;;4992520;28;20474;-68
2021/03/19 02:24:47;;;;;;;1.90;1.70;;;1.90;99.90;;;;;;4992156;28;20429;-68
2021/03/19 02:27:50;;;;;;;3.25;2.55;;;2.00;99.90;;;;;;4992338;28;20509;-69
2021/03/19 02:30:54;;;;;;;2.22;2.03;;;2.00;99.90;;;;;;4994540;28;20391;-69
2021/03/19 02:33:20;;;;;;;4.07;2.05;;;1.90;99.90;;;;;;5013762;28;20450;-69
2021/03/19 02:35:53;;;;;;;2.08;1.90;;;3.10;99.90;;;;;;5011501;28;20869;-69
2021/03/19 02:38:19;;;;;;;2.70;2.10;;;1.90;99.90;;;;;;5011809;28;20491;-69
2021/03/19 02:40:45;;;;;;;2.40;2.17;;;2.90;99.90;;;;;;5010746;28;20423;-69
2021/03/19 02:43:10;;;;;;;2.80;2.15;;;2.30;99.90;;;;;;5011514;28;20382;-69
2021/03/19 02:45:36;;;;;;;3.20;1.85;;;3.90;99.90;;;;;;5010729;28;20778;-72
2021/03/19 02:48:02;;;;;;;2.10;2.00;;;3.50;99.90;;;;;;5011263;28;20408;-69
2021/03/19 02:50:28;;;;;;;2.40;2.20;;;3.00;99.90;;;;;;5011393;28;20425;-69
2021/03/19 02:52:53;;;;;;;2.60;2.10;;;2.30;99.90;;;;;;5010219;28;20404;-69
2021/03/19 02:55:19;;;;;;;2.38;1.98;;;3.90;99.90;;;;;;5026325;28;20472;-68
2021/03/19 02:57:44;;;;;;;2.63;1.80;;;3.00;99.90;;;;;;5010306;28;20487;-69
2021/03/19 03:00:15;;;;;;;2.77;2.00;;;1.70;99.90;;;;;;5009997;28;20430;-69
2021/03/19 03:02:40;;;;;;;2.78;1.92;;;1.20;99.90;;;;;;5010588;28;20388;-69
2021/03/19 03:05:07;;;;;;;2.63;2.13;;;1.70;99.90;;;;;;5011236;28;20714;-69
2021/03/19 03:07:32;;;;;;;2.30;1.95;;;1.60;99.90;;;;;;5011070;28;20429;-70
2021/03/19 03:09:59;;;;;;;1.83;1.70;;;1.50;99.90;;;;;;5010428;28;20393;-69
2021/03/19 03:12:26;;;;;;;3.17;2.10;;;1.90;99.90;;;;;;5011145;28;20460;-69
2021/03/19 03:14:52;;;;;;;2.00;1.80;;;1.60;99.90;;;;;;5010145;28;21031;-69
2021/03/19 03:17:18;;;;;;;2.40;2.20;;;2.60;99.90;;;;;;5010749;28;20491;-69
2021/03/19 03:19:43;;;;;;;2.90;2.30;;;1.70;99.90;;;;;;5010426;28;20389;-69
2021/03/19 03:22:10;;;;;;;2.15;1.95;;;1.30;99.90;;;;;;5010776;28;20380;-69
2021/03/19 03:24:36;;;;;;;3.35;2.65;;;1.70;99.90;;;;;;5010810;28;20391;-72
2021/03/19 03:27:03;;;;;;;3.00;1.90;;;2.80;99.90;;;;;;5010686;28;20468;-69
2021/03/19 03:29:29;;;;;;;2.00;1.73;;;1.20;99.90;;;;;;5010347;28;20400;-69
2021/03/19 03:31:55;;;;;;;2.38;1.85;;;1.30;99.90;;;;;;5001890;28;20393;-69
2021/03/19 03:34:22;;;;;;;2.63;2.00;;;1.20;99.90;;;;;;4991221;28;20387;-69
2021/03/19 03:36:49;;;;;;;4.13;2.40;;;1.20;99.90;;;;;;4990371;28;20391;-69
2021/03/19 03:39:21;;;;;;;2.80;2.33;;;2.80;99.90;;;;;;4991139;28;20394;-69
2021/03/19 03:41:47;;;;;;;3.50;2.58;;;1.80;99.90;;;;;;4990548;28;20410;-69
2021/03/19 03:44:14;;;;;;;3.05;2.47;;;1.20;99.90;;;;;;4990545;28;20461;-69
2021/03/19 03:46:41;;;;;;;1.80;1.70;;;1.20;99.90;;;;;;5005316;28;20441;-73
2021/03/19 03:49:07;;;;;;;2.20;1.98;;;1.80;99.90;;;;;;4990950;28;20469;-68
2021/03/19 03:51:33;;;;;;;2.57;1.87;;;1.00;99.90;;;;;;4991030;28;20390;-69
2021/03/19 03:53:59;;;;;;;2.65;2.10;;;1.50;99.90;;;;;;5005196;28;20971;-69
2021/03/19 03:56:26;;;;;;;2.40;2.10;;;1.30;99.90;;;;;;4989503;28;20469;-69
2021/03/19 03:58:52;;;;;;;2.50;2.30;;;1.20;99.90;;;;;;4989937;28;20925;-69
2021/03/19 04:01:17;;;;;;;2.97;2.30;;;0.90;99.90;;;;;;4991363;28;20604;-69
2021/03/19 04:03:43;;;;;;;3.40;1.98;;;1.30;99.90;;;;;;4992262;28;20382;-69
2021/03/19 04:06:09;;;;;;;3.10;1.98;;;0.40;99.90;;;;;;4996912;28;20551;-69
2021/03/19 04:08:35;;;;;;;2.95;1.88;;;2.70;99.90;;;;;;4997530;28;20906;-69
2021/03/19 04:11:05;;;;;;;2.92;2.03;;;1.30;99.90;;;;;;4996659;28;20386;-69
2021/03/19 04:13:31;;;;;;;3.35;2.15;;;2.10;99.90;;;;;;4997082;28;20470;-69
2021/03/19 04:15:59;;;;;;;3.10;2.30;;;2.20;99.90;;;;;;4996674;28;20443;-69
2021/03/19 04:18:25;;;;;;;2.95;2.60;;;0.70;99.90;;;;;;5012454;28;20504;-69
2021/03/19 04:20:53;;;;;;;2.70;2.20;;;2.50;99.90;;;;;;4996459;28;20386;-69
2021/03/19 04:23:19;;;;;;;3.50;2.50;;;3.10;99.90;;;;;;4997125;28;20378;-70
2021/03/19 04:25:45;;;;;;;2.60;2.40;;;1.60;99.90;;;;;;4996277;28;20501;-69
2021/03/19 04:28:17;;;;;;;4.97;2.88;;;0.60;99.90;;;;;;4997242;28;20500;-70
2021/03/19 04:30:44;;;;;;;2.42;2.22;;;1.90;99.90;;;;;;5011649;28;20800;-74
2021/03/19 04:33:13;;;;;;;3.40;2.60;;;1.40;99.90;;;;;;5015465;28;20407;-71
2021/03/19 04:35:39;;;;;;;3.35;3.05;;;1.30;99.90;;;;;;5016579;28;20904;-68
2021/03/19 04:38:16;;;;;;;2.53;2.25;;;0.80;99.90;;;;;;5031318;28;20400;-69
2021/03/19 04:40:44;;;;;;;3.40;2.53;;;2.00;99.90;;;;;;5015901;28;20467;-73
2021/03/19 04:43:11;;;;;;;3.15;2.40;;;1.90;99.90;;;;;;5016857;28;20423;-69
2021/03/19 04:45:43;;;;;;;2.15;1.88;;;2.70;99.90;;;;;;5016405;28;20484;-69
2021/03/19 04:48:09;;;;;;;2.60;2.00;;;1.90;99.90;;;;;;5016466;28;20501;-68
2021/03/19 04:50:35;;;;;;;4.00;2.20;;;1.30;99.90;;;;;;5016660;28;20537;-68
2021/03/19 04:53:01;;;;;;;3.17;2.42;;;1.30;99.90;;;;;;5015644;28;20415;-68
2021/03/19 04:55:27;;;;;;;2.70;2.15;;;1.50;99.90;;;;;;5031708;28;20424;-69
2021/03/19 04:57:52;;;;;;;3.55;2.35;;;3.10;99.90;;;;;;5016151;28;20770;-69
2021/03/19 05:00:20;;;;;;;2.90;2.10;;;1.50;99.90;;;;;;5016958;28;20860;-69
2021/03/19 05:02:49;;;;;;;3.10;2.40;;;1.30;99.90;;;;;;5016167;28;20483;-69
2021/03/19 05:05:20;;;;;;;2.90;2.53;;;1.30;99.90;;;;;;5017192;28;20389;-69
2021/03/19 05:07:46;;;;;;;2.67;1.90;;;1.40;99.90;;;;;;5015969;28;20832;-70
2021/03/19 05:10:14;;;;;;;2.80;2.10;;;1.40;99.90;;;;;;5016942;28;20568;-69
2021/03/19 05:12:39;;;;;;;2.50;2.08;;;1.40;99.90;;;;;;5016445;28;20412;-69
2021/03/19 05:15:06;;;;;;;3.15;2.50;;;1.80;99.90;;;;;;5014740;28;20420;-69
2021/03/19 05:17:33;;;;;;;2.40;1.92;;;1.30;99.90;;;;;;5013797;28;20738;-69
2021/03/19 05:20:00;;;;;;;6.30;2.90;;;1.80;99.90;;;;;;5012900;28;20412;-69
2021/03/19 05:22:25;;;;;;;2.58;2.38;;;3.50;99.90;;;;;;5013531;28;20412;-70
2021/03/19 05:24:51;;;;;;;2.58;2.25;;;1.90;99.90;;;;;;5010028;28;20420;-69
2021/03/19 05:27:18;;;;;;;2.83;2.20;;;3.10;99.90;;;;;;5001511;28;20725;-70
2021/03/19 05:29:44;;;;;;;2.80;2.30;;;3.20;99.90;;;;;;5003591;28;20402;-72
2021/03/19 05:32:10;;;;;;;4.90;2.72;;;1.40;99.90;;;;;;5003797;28;20438;-69
2021/03/19 05:34:35;;;;;;;3.00;2.70;;;1.20;99.90;;;;;;5001492;28;21214;-69
2021/03/19 05:37:01;;;;;;;2.40;2.20;;;1.30;99.90;;;;;;5000562;28;20508;-71
2021/03/19 05:39:26;;;;;;;2.75;2.55;;;1.40;99.90;;;;;;5004110;28;20983;-71
2021/03/19 05:41:52;;;;;;;3.30;3.00;;;1.50;99.90;;;;;;5016694;28;20510;-70
2021/03/19 05:44:27;;;;;;;6.00;2.60;;;1.60;99.90;;;;;;5002868;28;20466;-69
2021/03/19 05:47:02;;;;;;;4.27;2.70;;;1.50;99.90;;;;;;5001469;28;20903;-72
2021/03/19 05:49:33;;;;;;;2.75;2.28;;;3.80;99.90;;;;;;5004288;28;20381;-69
2021/03/19 05:52:22;;;;;;;2.50;2.30;;;2.90;99.90;;;;;;5001435;28;20515;-69
2021/03/19 05:54:50;;;;;;;3.30;2.80;;;1.40;99.90;;;;;;5001185;28;20385;-72
2021/03/19 05:57:32;;;;;;;2.83;2.50;;;1.40;99.90;;;;;;5016986;28;20415;-69
2021/03/19 06:00:00;;;;;;;3.75;3.00;;;1.70;99.90;;;;;;5001815;28;20991;-69
2021/03/19 06:02:37;;;;;;;3.55;3.25;;;2.60;99.90;;;;;;5002405;28;20825;-69
2021/03/19 06:05:26;;;;;;;3.65;2.95;;;1.50;99.90;;;;;;5000024;28;20393;-70
2021/03/19 06:08:01;;;;;;;4.80;3.20;;;3.30;99.90;;;;;;4998127;28;20443;-71
2021/03/19 06:10:36;;;;;;;4.10;2.80;;;3.30;99.90;;;;;;5003070;28;20409;-69
2021/03/19 06:13:22;;;;;;;3.22;2.33;;;1.70;99.90;;;;;;5002240;28;20385;-70
2021/03/19 06:15:53;;;;;;;3.40;2.58;;;3.00;99.90;;;;;;5003188;28;20742;-72
2021/03/19 06:18:19;;;;;;;3.65;2.80;;;;;;;;;;4999624;28;20397;-69
2021/03/19 06:21:02;;;;;;;3.80;2.60;;;1.80;99.90;;;;;;5002309;28;20377;-69
2021/03/19 06:23:28;;;;;;;2.50;2.30;;;2.00;99.90;;;;;;5002434;28;20391;-70
2021/03/19 06:26:04;;;;;;;2.60;2.35;;;1.80;99.90;;;;;;5000646;28;20381;-69
2021/03/19 06:28:39;;;;;;;2.88;2.10;;;1.80;99.90;;;;;;5013700;28;20417;-70
2021/03/19 06:31:16;;;;;;;5.78;2.90;;;1.70;99.90;;;;;;4999062;28;20435;-71
2021/03/19 06:33:43;;;;;;;2.90;2.60;;;3.50;99.90;;;;;;5002978;28;20396;-71
2021/03/19 06:36:14;;;;;;;3.92;2.50;;;2.70;99.90;;;;;;5001814;28;20981;-70
2021/03/19 06:39:03;;;;;;;2.17;1.98;;;2.00;99.90;;;;;;4998686;28;20501;-70
2021/03/19 06:41:32;;;;;;;3.80;2.58;;;2.00;99.90;;;;;;5002352;28;20501;-69
2021/03/19 06:44:20;;;;;;;3.90;2.55;;;3.60;99.90;;;;;;5011638;28;20393;-70
2021/03/19 06:46:49;;;;;;;5.03;2.80;;;2.00;99.90;;;;;;5011623;28;20434;-68
2021/03/19 06:49:16;;;;;;;3.72;2.80;;;2.00;99.90;;;;;;5010221;28;20431;-68
2021/03/19 06:51:46;;;;;;;3.65;3.33;;;2.60;99.90;;;;;;5010970;28;20489;-69
2021/03/19 06:54:15;;;;;;;4.05;3.08;;;2.10;99.90;;;;;;5010258;28;20535;-69
2021/03/19 06:57:05;;;;;;;4.00;3.10;;;3.30;99.90;;;;;;5011072;28;20397;-70
2021/03/19 06:59:42;;;;;;;3.17;2.40;;;2.20;99.90;;;;;;5010915;28;20385;-69
2021/03/19 07:02:20;;;;;;;3.55;2.72;;;2.40;99.90;;;;;;5009872;28;21094;-69
2021/03/19 07:05:00;;;;;;;3.25;2.90;;;4.00;99.90;;;;;;5011741;28;20423;-70
2021/03/19 07:07:47;;;;;;;3.10;2.50;;;2.00;99.90;;;;;;5017144;28;20489;-69
2021/03/19 07:10:38;;;;;;;3.35;2.35;;;2.50;99.90;;;;;;5013216;28;20569;-69
2021/03/19 07:13:16;;;;;;;3.30;3.00;;;2.80;99.90;;;;;;5020005;28;20396;-70
2021/03/19 07:15:41;;;;;;;4.28;2.78;;;3.10;99.90;;;;;;5007519;28;20425;-69
2021/03/19 07:18:24;;;;;;;3.53;2.40;;;4.30;99.90;;;;;;5008684;28;20382;-69
2021/03/19 07:20:53;;;;;;;2.97;2.40;;;;;;;;;;5002771;28;20412;-72
2021/03/19 07:23:37;;;;;;;3.13;2.80;;;2.70;99.90;;;;;;5008725;28;20854;-71
2021/03/19 07:26:26;;;;;;;4.10;2.92;;;3.20;99.90;;;;;;5007963;28;20386;-70
2021/03/19 07:29:07;;;;;;;3.47;2.90;;;3.50;99.90;;;;;;5005741;28;20808;-74
2021/03/19 07:32:00;;;;;;;2.50;2.30;;;2.90;99.90;;;;;;5008554;28;20474;-70
2021/03/19 07:34:41;;;;;;;2.80;1.90;;;3.30;99.90;;;;;;5009216;28;20384;-70
2021/03/19 07:37:30;;;;;;;3.22;2.30;;;3.20;99.90;;;;;;5006119;28;20435;-70
2021/03/19 07:40:04;;;;;;;5.47;2.20;;;3.30;99.90;;;;;;5007448;28;20914;-70
2021/03/19 07:43:09;;;;;;;3.05;2.00;;;3.20;99.90;;;;;;5009864;28;20833;-70
2021/03/19 07:45:50;;;;;;;2.23;2.03;;;3.30;99.90;;;;;;5007311;28;20425;-69
2021/03/19 07:48:22;;;;;;;3.30;2.15;;;3.40;99.90;;;;;;5007377;28;20506;-71
2021/03/19 07:51:10;;;;;;;3.78;2.28;;;3.50;99.90;;;;;;5009926;28;20430;-70
2021/03/19 07:53:36;;;;;;;2.60;2.22;;;3.50;99.90;;;;;;5006072;28;20411;-70
2021/03/19 07:56:19;;;;;;;2.70;2.20;;;3.90;99.90;;;;;;5006607;28;20396;-70
2021/03/19 07:58:58;;;;;;;2.97;2.03;;;3.60;99.90;;;;;;4989571;28;20400;-71
2021/03/19 08:01:44;;;;;;;2.30;1.95;;;3.80;99.90;;;;;;4996824;28;21620;-70
2021/03/19 08:04:10;;;;;;;4.05;2.10;;;4.20;99.90;;;;;;4995399;28;20713;-70
2021/03/19 08:06:42;;;;;;;2.50;1.77;;;4.20;99.90;;;;;;4998600;28;20423;-70
2021/03/19 08:09:18;;;;;;;4.57;2.10;;;4.10;99.90;;;;;;4992464;28;20857;-71
2021/03/19 08:11:54;;;;;;;2.58;2.10;;;4.20;99.90;;;;;;5003896;28;20409;-71
2021/03/19 08:14:36;;;;;;;2.30;2.10;;;4.30;99.90;;;;;;4995472;28;20484;-74
2021/03/19 08:17:24;;;;;;;2.72;2.00;;;3.80;99.90;;;;;;4996605;28;20494;-73
2021/03/19 08:20:22;;;;;;;2.80;2.22;;;3.30;99.90;;;;;;4994396;28;21125;-71
2021/03/19 08:23:02;;;;;;;3.47;2.47;;;;;;;;;;5013303;28;20455;-72
2021/03/19 08:25:35;;;;;;;2.38;1.95;;;4.40;99.90;;;;;;4997898;28;20464;-70
2021/03/19 08:28:18;;;;;;;2.40;2.20;;;4.90;99.90;;;;;;4990922;28;20424;-70
2021/03/19 08:31:18;;;;;;;5.33;2.20;;;4.30;99.90;;;;;;5011751;28;20465;-71
2021/03/19 08:33:57;;;;;;;2.15;1.95;;;4.60;99.90;;;;;;4997223;28;20397;-70
2021/03/19 08:36:23;;;;;;;3.53;2.50;;;4.80;99.90;;;;;;4994959;28;20480;-71
2021/03/19 08:38:55;;;;;;;3.35;2.70;;;4.60;99.90;;;;;;4993586;28;20401;-71
2021/03/19 08:41:29;;;;;;;2.60;2.40;;;4.60;99.90;;;;;;4998109;28;20421;-71
2021/03/19 08:44:05;;;;;;;4.05;3.30;;;4.90;99.90;;;;;;4995836;28;21606;-71
2021/03/19 08:46:30;;;;;;;4.20;2.60;;;5.10;99.90;;;;;;4996271;28;21255;-71
2021/03/19 08:49:03;;;;;;;4.10;2.80;;;4.90;99.90;;;;;;5007409;28;20399;-73
2021/03/19 08:51:30;;;;;;;3.13;2.72;;;5.10;99.90;;;;;;5015984;28;20392;-71
2021/03/19 08:54:17;;;;;;;3.70;2.72;;;3.60;99.90;;;;;;4999344;28;21120;-74
2021/03/19 08:56:45;;;;;;;2.33;2.13;;;4.30;99.90;;;;;;4999234;28;20407;-71
2021/03/19 08:59:30;;;;;;;2.77;2.50;;;5.30;99.90;;;;;;4994728;28;20466;-71
2021/03/19 09:02:17;;;;;;;3.60;3.20;;;4.50;99.90;;;;;;5001407;28;20389;-74
2021/03/19 09:04:58;;;;;;;5.30;3.10;;;5.80;99.90;;;;;;5001376;28;20392;-73
2021/03/19 09:07:35;;;;;;;3.05;2.75;;;4.90;99.90;;;;;;4996324;28;20444;-72
2021/03/19 09:10:04;;;;;;;3.13;2.70;;;4.50;99.90;;;;;;4996668;28;20400;-73
2021/03/19 09:12:51;;;;;;;4.07;3.20;;;5.30;99.90;;;;;;5016231;28;20393;-71
2021/03/19 09:15:17;;;;;;;4.33;3.63;;;4.40;99.90;;;;;;5001092;28;20380;-74
2021/03/19 09:17:43;;;;;;;4.17;3.67;;;4.50;99.90;;;;;;5010033;28;20415;-73
2021/03/19 09:20:23;;;;;;;5.78;4.43;;;4.50;99.90;;;;;;5011337;28;20393;-69
2021/03/19 09:23:09;;;;;;;5.70;3.97;;;4.50;99.90;;;;;;5000227;28;20393;-71
2021/03/19 09:26:15;;;;;;;6.47;5.22;;;4.10;99.90;;;;;;5001478;28;20411;-70
2021/03/19 09:28:56;;;;;;;6.15;4.70;;;4.50;99.90;;;;;;4992728;28;20456;-70
2021/03/19 09:31:25;;;;;;;5.72;4.90;;;4.60;99.90;;;;;;5000985;28;20416;-70
2021/03/19 09:33:50;;;;;;;6.05;5.30;;;5.20;99.90;;;;;;4997633;28;20405;-70
2021/03/19 09:36:52;;;;;;;6.50;5.90;;;4.80;99.90;;;;;;4997759;28;20941;-74
2021/03/19 09:39:50;;;;;;;6.80;5.88;;;4.70;99.90;;;;;;5007016;28;21027;-70
2021/03/19 09:42:19;;;;;;;8.85;6.78;;;4.40;99.90;;;;;;4999079;28;20421;-69
2021/03/19 09:44:58;;;;;;;7.72;6.45;;;4.70;99.90;;;;;;4999451;28;20397;-74
2021/03/19 09:47:45;;;;;;;7.70;6.90;;;4.90;99.90;;;;;;4998403;28;20624;-74
2021/03/19 09:50:14;;;;;;;7.15;6.30;;;4.60;99.90;;;;;;4995023;28;20422;-73
2021/03/19 09:53:00;;;;;;;6.53;5.80;;;4.90;99.90;;;;;;5000909;28;20388;-71
2021/03/19 09:55:51;;;;;;;7.13;5.93;;;5.00;99.90;;;;;;4997898;28;20449;-71
2021/03/19 09:58:22;;;;;;;6.40;5.63;;;4.80;99.90;;;;;;4990335;28;20392;-70
2021/03/19 10:01:13;;;;;;;8.30;6.10;;;4.80;99.90;;;;;;4999895;28;20408;-71
2021/03/19 10:03:47;;;;;;;9.57;5.85;;;5.00;99.90;;;;;;4988392;28;21243;-71
2021/03/19 10:06:27;;;;;;;6.35;5.50;;;4.70;99.90;;;;;;4999712;28;20392;-73
2021/03/19 10:09:10;;;;;;;8.13;6.00;;;5.00;99.90;;;;;;4994807;28;20504;-70
2021/03/19 10:11:48;;;;;;;7.65;6.13;;;5.30;99.90;;;;;;4998934;28;20401;-68
2021/03/19 10:14:28;;;;;;;9.02;6.30;;;5.50;99.90;;;;;;4997931;28;20385;-70
2021/03/19 10:17:30;;;;;;;9.13;6.15;;;5.40;99.90;;;;;;4996802;28;20401;-71
2021/03/19 10:20:23;;;;;;;6.22;5.63;;;5.30;99.90;;;;;;4990141;28;21178;-72
2021/03/19 10:22:51;;;;;;;6.27;5.67;;;5.70;99.90;;;;;;4998330;28;20397;-72
2021/03/19 10:25:28;;;;;;;8.70;6.47;;;4.90;99.90;;;;;;4998566;28;20620;-75
2021/03/19 10:27:57;;;;;;;7.18;5.20;;;5.30;99.90;;;;;;4993465;28;21251;-70
2021/03/19 10:30:32;;;;;;;5.73;5.13;;;5.50;99.90;;;;;;4998160;28;20403;-71
2021/03/19 10:33:08;;;;;;;10.43;6.47;;;5.50;99.90;;;;;;4998547;28;20427;-72
2021/03/19 10:35:38;;;;;;;6.87;5.67;;;5.90;99.90;;;;;;4999917;28;20416;-72
2021/03/19 10:38:09;;;;;;;8.85;6.20;;;5.60;99.90;;;;;;5006969;28;20412;-76
2021/03/19 10:40:37;;;;;;;7.75;5.97;;;6.20;99.90;;;;;;4997531;28;20431;-70
2021/03/19 10:43:27;;;;;;;7.20;5.55;;;6.70;99.90;;;;;;4998474;28;20885;-70
2021/03/19 10:46:08;;;;;;;8.57;5.85;;;5.50;99.90;;;;;;5000768;28;21762;-70
2021/03/19 10:48:49;;;;;;;6.90;6.20;;;5.40;99.90;;;;;;4992768;28;21128;-73
2021/03/19 10:51:33;;;;;;;10.38;6.20;;;5.20;99.90;;;;;;4998514;28;20393;-75
2021/03/19 10:54:09;;;;;;;6.90;5.70;;;5.40;99.90;;;;;;4998535;28;20384;-74
2021/03/19 10:56:44;;;;;;;7.68;5.90;;;5.20;99.90;;;;;;4996918;28;20503;-70
2021/03/19 10:59:19;;;;;;;7.30;5.80;;;5.10;99.90;;;;;;4990780;28;20389;-72
2021/03/19 11:01:49;;;;;;;7.32;5.63;;;4.60;99.90;;;;;;4997799;28;20525;-70
2021/03/19 11:04:35;;;;;;;7.50;5.90;;;5.00;99.90;;;;;;4997784;28;20560;-70
2021/03/19 11:07:29;;;;;;;6.30;5.17;;;5.90;99.90;;;;;;4997586;28;20640;-74
2021/03/19 11:10:10;;;;;;;6.50;5.43;;;4.60;99.90;;;;;;4993601;28;20559;-70
2021/03/19 11:12:41;;;;;;;8.03;6.27;;;4.00;99.90;;;;;;4996247;28;20447;-74
2021/03/19 11:15:29;;;;;;;6.80;5.70;;;3.90;99.90;;;;;;4997361;28;20476;-71
2021/03/19 11:18:23;;;;;;;9.10;6.47;;;3.70;99.90;;;;;;4993414;28;20442;-73
2021/03/19 11:20:51;;;;;;;8.70;7.00;;;3.80;99.90;;;;;;4997676;28;20437;-71
2021/03/19 11:24:05;;;;;;;7.65;6.22;;;4.00;99.90;;;;;;4998864;28;20428;-71
2021/03/19 11:26:35;;;;;;;8.27;6.38;;;3.90;99.90;;;;;;4992297;28;20412;-71
2021/03/19 11:29:13;;;;;;;9.20;6.53;;;4.10;99.90;;;;;;4990876;28;20396;-73
2021/03/19 11:32:02;;;;;;;8.18;6.90;;;4.20;99.90;;;;;;5002961;28;20446;-75
2021/03/19 11:34:36;;;;;;;7.93;6.30;;;4.00;99.90;;;;;;4997433;28;21122;-75
2021/03/19 11:37:19;;;;;;;9.10;6.30;;;4.00;99.90;;;;;;4997617;28;20412;-73
2021/03/19 11:39:57;;;;;;;6.88;6.18;;;4.00;99.90;;;;;;4992989;28;20426;-74
2021/03/19 11:42:25;;;;;;;8.25;6.03;;;3.70;99.90;;;;;;4997974;28;20947;-74
2021/03/19 11:44:57;;;;;;;8.05;6.28;;;4.10;99.90;;;;;;4997015;28;20433;-74
2021/03/19 11:47:29;;;;;;;7.50;6.40;;;4.00;99.90;;;;;;4995474;28;20420;-71
2021/03/19 11:50:13;;;;;;;6.70;6.00;;;4.30;99.90;;;;;;4994463;28;20431;-74
2021/03/19 11:52:40;;;;;;;7.40;6.10;;;4.30;99.90;;;;;;4998747;28;20392;-71
2021/03/19 11:55:06;;;;;;;6.90;6.20;;;4.20;99.90;;;;;;4996432;28;20413;-70
2021/03/19 11:57:32;;;;;;;6.30;5.70;;;3.90;99.90;;;;;;4995418;28;20484;-70
2021/03/19 11:59:58;;;;;;;5.72;5.22;;;;;;;;;;4993981;28;20389;-75
2021/03/19 12:02:45;;;;;;;4.37;3.47;;;3.80;99.90;;;;;;4996761;28;20428;-69
2021/03/19 12:05:13;;;;;;;2.40;2.20;;;2.90;99.90;;;;;;4995016;28;20473;-69
2021/03/19 12:07:39;;;;;;;2.60;2.40;;;3.00;99.90;;;;;;4992660;28;20455;-70
2021/03/19 12:10:07;;;;;;;3.20;2.30;;;3.10;99.90;;;;;;4995501;28;20428;-71
2021/03/19 12:12:34;;;;;;;2.15;1.95;;;2.70;99.90;;;;;;4997967;28;20403;-73
2021/03/19 12:15:00;;;;;;;4.28;2.95;;;3.00;99.90;;;;;;4997825;28;20392;-74
2021/03/19 12:17:26;;;;;;;2.90;2.60;;;3.30;99.90;;;;;;4996923;28;20435;-69
2021/03/19 12:19:52;;;;;;;3.25;2.30;;;3.20;99.90;;;;;;5000556;28;20443;-70
2021/03/19 12:22:20;;;;;;;2.80;2.60;;;2.90;99.90;;;;;;5005640;28;21215;-70
2021/03/19 12:24:46;;;;;;;3.53;2.90;;;3.20;99.90;;;;;;5012657;28;20467;-69
2021/03/19 12:27:13;;;;;;;4.20;2.90;;;4.90;99.90;;;;;;5009467;28;20492;-70
2021/03/19 12:29:39;;;;;;;2.90;2.70;;;3.30;99.90;;;;;;5012721;28;20404;-71
2021/03/19 12:32:05;;;;;;;3.53;2.80;;;4.30;99.90;;;;;;5011098;28;20729;-70
2021/03/19 12:34:32;;;;;;;3.15;2.85;;;3.90;99.90;;;;;;5017053;28;20810;-71
2021/03/19 12:36:58;;;;;;;3.40;3.10;;;3.80;99.90;;;;;;5030241;28;20410;-72
2021/03/19 12:39:24;;;;;;;4.37;3.17;;;3.50;99.90;;;;;;5016969;28;20392;-69
2021/03/19 12:41:49;;;;;;;3.30;2.78;;;4.10;99.90;;;;;;5009318;28;20409;-70
2021/03/19 12:44:16;;;;;;;3.08;2.78;;;4.60;99.90;;;;;;5002654;28;20392;-71
2021/03/19 12:46:42;;;;;;;3.30;2.58;;;4.40;99.90;;;;;;5008893;28;20434;-72
2021/03/19 12:49:08;;;;;;;3.13;2.70;;;5.00;99.90;;;;;;5008914;28;20400;-70
2021/03/19 12:51:34;;;;;;;2.60;2.40;;;5.90;99.90;;;;;;5024409;28;20400;-70
2021/03/19 12:54:00;;;;;;;3.20;2.63;;;7.00;99.90;;;;;;5013037;28;20489;-74
2021/03/19 12:56:27;;;;;;;2.42;2.22;;;6.50;99.90;;;;;;5008226;28;20389;-71
2021/03/19 12:58:52;;;;;;;2.33;2.13;;;5.30;99.90;;;;;;5013173;28;20443;-71
2021/03/19 13:01:20;;;;;;;3.28;2.80;;;5.50;99.90;;;;;;5002111;28;20384;-74
2021/03/19 13:03:50;;;;;;;2.78;2.55;;;5.80;99.90;;;;;;5001689;28;20472;-69
2021/03/19 13:06:18;;;;;;;2.80;2.50;;;5.80;99.90;;;;;;4998268;28;20392;-71
2021/03/19 13:08:44;;;;;;;3.65;3.15;;;5.70;99.90;;;;;;4998524;28;20507;-73
2021/03/19 13:11:11;;;;;;;3.30;3.00;;;5.50;99.90;;;;;;4998056;28;20466;-71
2021/03/19 13:13:37;;;;;;;3.40;3.10;;;6.50;99.90;;;;;;5001601;28;20416;-70
2021/03/19 13:16:03;;;;;;;3.08;2.80;;;5.10;99.90;;;;;;5009396;28;20865;-75
2021/03/19 13:18:29;;;;;;;3.67;3.22;;;6.40;99.90;;;;;;5002813;28;20480;-74
2021/03/19 13:20:55;;;;;;;3.40;3.10;;;4.80;99.90;;;;;;5004930;28;20795;-70
2021/03/19 13:23:21;;;;;;;3.40;3.08;;;4.20;99.90;;;;;;5007221;28;20402;-70
2021/03/19 13:25:47;;;;;;;3.60;2.75;;;4.30;99.90;;;;;;5010954;28;20411;-70
2021/03/19 13:28:16;;;;;;;2.73;2.53;;;2.90;99.90;;;;;;5004145;28;20412;-69
2021/03/19 13:30:45;;;;;;;3.03;2.47;;;4.60;99.90;;;;;;5002958;28;20394;-69
2021/03/19 13:33:11;;;;;;;1.92;1.80;;;5.00;99.90;;;;;;4997048;28;20470;-69